sensor_id;sensor_type;location;lat;lon;timestamp;temperature;humidity
56046;DHT22;41913;51.030;3.706;2023-07-29T00:01:44;24.20;88.20
56046;DHT22;41913;51.030;3.706;2023-07-29T00:04:12;24.20;88.20
56046;DHT22;41913;51.030;3.706;2023-07-29T00:06:37;24.20;88.20
56046;DHT22;41913;51.030;3.706;2023-07-29T00:09:03;24.20;88.10
56046;DHT22;41913;51.030;3.706;2023-07-29T00:11:29;24.20;88.10
56046;DHT22;41913;51.030;3.706;2023-07-29T00:13:55;24.20;88.10
56046;DHT22;41913;51.030;3.706;2023-07-29T00:16:21;24.20;88.10
56046;DHT22;41913;51.030;3.706;2023-07-29T00:18:48;24.20;88.10
56046;DHT22;41913;51.030;3.706;2023-07-29T00:21:14;24.20;88.20
56046;DHT22;41913;51.030;3.706;2023-07-29T00:23:39;24.20;88.20
56046;DHT22;41913;51.030;3.706;2023-07-29T00:26:05;24.20;88.20
56046;DHT22;41913;51.030;3.706;2023-07-29T00:28:31;24.20;88.10
56046;DHT22;41913;51.030;3.706;2023-07-29T00:30:57;24.10;88.00
56046;DHT22;41913;51.030;3.706;2023-07-29T00:33:22;24.10;88.60
56046;DHT22;41913;51.030;3.706;2023-07-29T00:35:48;24.10;88.10
56046;DHT22;41913;51.030;3.706;2023-07-29T00:38:14;24.10;87.90
56046;DHT22;41913;51.030;3.706;2023-07-29T00:40:39;24.10;88.00
56046;DHT22;41913;51.030;3.706;2023-07-29T00:43:05;24.10;87.90
56046;DHT22;41913;51.030;3.706;2023-07-29T00:45:32;24.10;88.00
56046;DHT22;41913;51.030;3.706;2023-07-29T00:47:59;24.10;87.90
56046;DHT22;41913;51.030;3.706;2023-07-29T00:50:25;24.10;87.90
56046;DHT22;41913;51.030;3.706;2023-07-29T00:52:54;24.10;87.90
56046;DHT22;41913;51.030;3.706;2023-07-29T00:55:20;24.10;87.80
56046;DHT22;41913;51.030;3.706;2023-07-29T00:57:45;24.10;87.80
56046;DHT22;41913;51.030;3.706;2023-07-29T01:00:14;24.10;87.90
56046;DHT22;41913;51.030;3.706;2023-07-29T01:02:42;24.10;88.00
56046;DHT22;41913;51.030;3.706;2023-07-29T01:05:08;24.10;88.10
56046;DHT22;41913;51.030;3.706;2023-07-29T01:08:12;24.10;88.10
56046;DHT22;41913;51.030;3.706;2023-07-29T01:10:50;24.10;88.10
56046;DHT22;41913;51.030;3.706;2023-07-29T01:13:25;24.10;87.90
56046;DHT22;41913;51.030;3.706;2023-07-29T01:15:58;24.10;88.00
56046;DHT22;41913;51.030;3.706;2023-07-29T01:18:26;24.10;88.10
56046;DHT22;41913;51.030;3.706;2023-07-29T01:20:54;24.10;88.20
56046;DHT22;41913;51.030;3.706;2023-07-29T01:23:33;24.10;88.20
56046;DHT22;41913;51.030;3.706;2023-07-29T01:25:59;24.10;88.10
56046;DHT22;41913;51.030;3.706;2023-07-29T01:28:25;24.10;88.10
56046;DHT22;41913;51.030;3.706;2023-07-29T01:31:40;24.10;88.20
56046;DHT22;41913;51.030;3.706;2023-07-29T01:36:37;24.10;88.20
56046;DHT22;41913;51.030;3.706;2023-07-29T01:39:06;24.10;88.30
56046;DHT22;41913;51.030;3.706;2023-07-29T01:41:33;24.10;88.30
56046;DHT22;41913;51.030;3.706;2023-07-29T01:43:59;24.10;88.20
56046;DHT22;41913;51.030;3.706;2023-07-29T01:46:25;24.10;88.10
56046;DHT22;41913;51.030;3.706;2023-07-29T01:48:51;24.10;88.10
56046;DHT22;41913;51.030;3.706;2023-07-29T01:51:17;24.10;88.60
56046;DHT22;41913;51.030;3.706;2023-07-29T01:53:42;24.10;88.10
56046;DHT22;41913;51.030;3.706;2023-07-29T01:56:08;24.10;88.10
56046;DHT22;41913;51.030;3.706;2023-07-29T01:58:34;24.10;88.10
56046;DHT22;41913;51.030;3.706;2023-07-29T02:00:59;24.10;88.20
56046;DHT22;41913;51.030;3.706;2023-07-29T02:03:25;24.10;88.10
56046;DHT22;41913;51.030;3.706;2023-07-29T02:05:50;24.10;88.60
56046;DHT22;41913;51.030;3.706;2023-07-29T02:08:16;24.10;88.10
56046;DHT22;41913;51.030;3.706;2023-07-29T02:10:42;24.10;88.00
56046;DHT22;41913;51.030;3.706;2023-07-29T02:13:10;24.10;87.90
56046;DHT22;41913;51.030;3.706;2023-07-29T02:15:36;24.10;87.90
56046;DHT22;41913;51.030;3.706;2023-07-29T02:18:02;24.10;88.00
56046;DHT22;41913;51.030;3.706;2023-07-29T02:20:30;24.10;88.00
56046;DHT22;41913;51.030;3.706;2023-07-29T02:22:56;24.10;87.90
56046;DHT22;41913;51.030;3.706;2023-07-29T02:25:21;24.00;87.80
56046;DHT22;41913;51.030;3.706;2023-07-29T02:27:47;24.10;87.90
56046;DHT22;41913;51.030;3.706;2023-07-29T02:30:12;24.00;87.70
56046;DHT22;41913;51.030;3.706;2023-07-29T02:32:38;24.00;87.60
56046;DHT22;41913;51.030;3.706;2023-07-29T02:35:05;24.00;87.70
56046;DHT22;41913;51.030;3.706;2023-07-29T02:37:31;24.00;87.60
56046;DHT22;41913;51.030;3.706;2023-07-29T02:39:56;24.00;87.60
56046;DHT22;41913;51.030;3.706;2023-07-29T02:42:22;24.00;87.70
56046;DHT22;41913;51.030;3.706;2023-07-29T02:44:47;24.00;87.70
56046;DHT22;41913;51.030;3.706;2023-07-29T02:47:13;24.00;87.70
56046;DHT22;41913;51.030;3.706;2023-07-29T02:49:39;24.00;87.60
56046;DHT22;41913;51.030;3.706;2023-07-29T02:52:05;24.00;87.60
56046;DHT22;41913;51.030;3.706;2023-07-29T02:54:30;24.00;87.70
56046;DHT22;41913;51.030;3.706;2023-07-29T02:56:56;24.00;87.70
56046;DHT22;41913;51.030;3.706;2023-07-29T02:59:22;24.00;87.70
56046;DHT22;41913;51.030;3.706;2023-07-29T03:01:47;24.00;87.50
56046;DHT22;41913;51.030;3.706;2023-07-29T03:04:13;24.00;87.50
56046;DHT22;41913;51.030;3.706;2023-07-29T03:06:39;24.00;87.50
56046;DHT22;41913;51.030;3.706;2023-07-29T03:09:05;23.90;87.50
56046;DHT22;41913;51.030;3.706;2023-07-29T03:11:30;24.00;87.90
56046;DHT22;41913;51.030;3.706;2023-07-29T03:13:56;23.90;87.30
56046;DHT22;41913;51.030;3.706;2023-07-29T03:16:22;24.00;87.50
56046;DHT22;41913;51.030;3.706;2023-07-29T03:18:49;23.90;87.30
56046;DHT22;41913;51.030;3.706;2023-07-29T03:21:14;23.90;87.20
56046;DHT22;41913;51.030;3.706;2023-07-29T03:23:40;23.90;87.30
56046;DHT22;41913;51.030;3.706;2023-07-29T03:26:06;23.90;87.30
56046;DHT22;41913;51.030;3.706;2023-07-29T03:28:39;23.90;87.30
56046;DHT22;41913;51.030;3.706;2023-07-29T03:31:05;23.90;87.40
56046;DHT22;41913;51.030;3.706;2023-07-29T03:33:31;23.90;87.40
56046;DHT22;41913;51.030;3.706;2023-07-29T03:35:57;23.90;87.30
56046;DHT22;41913;51.030;3.706;2023-07-29T03:38:24;23.90;87.30
56046;DHT22;41913;51.030;3.706;2023-07-29T03:40:50;23.90;87.30
56046;DHT22;41913;51.030;3.706;2023-07-29T03:43:16;23.90;87.40
56046;DHT22;41913;51.030;3.706;2023-07-29T03:45:42;23.90;87.40
56046;DHT22;41913;51.030;3.706;2023-07-29T03:48:08;23.90;87.40
56046;DHT22;41913;51.030;3.706;2023-07-29T03:50:35;23.90;87.40
56046;DHT22;41913;51.030;3.706;2023-07-29T03:53:04;23.90;87.40
56046;DHT22;41913;51.030;3.706;2023-07-29T03:55:31;23.90;87.40
56046;DHT22;41913;51.030;3.706;2023-07-29T03:58:00;23.90;87.40
56046;DHT22;41913;51.030;3.706;2023-07-29T04:00:27;23.90;87.50
56046;DHT22;41913;51.030;3.706;2023-07-29T04:02:52;23.90;87.50
56046;DHT22;41913;51.030;3.706;2023-07-29T04:05:18;23.90;87.40
56046;DHT22;41913;51.030;3.706;2023-07-29T04:07:44;23.90;87.30
56046;DHT22;41913;51.030;3.706;2023-07-29T04:10:10;23.90;87.40
56046;DHT22;41913;51.030;3.706;2023-07-29T04:12:37;23.90;87.40
56046;DHT22;41913;51.030;3.706;2023-07-29T04:15:03;23.90;87.40
56046;DHT22;41913;51.030;3.706;2023-07-29T04:17:29;23.90;87.50
56046;DHT22;41913;51.030;3.706;2023-07-29T04:19:54;23.90;87.40
56046;DHT22;41913;51.030;3.706;2023-07-29T04:22:20;23.90;87.50
56046;DHT22;41913;51.030;3.706;2023-07-29T04:24:46;23.90;87.40
56046;DHT22;41913;51.030;3.706;2023-07-29T04:27:12;23.90;87.50
56046;DHT22;41913;51.030;3.706;2023-07-29T04:29:37;23.90;88.10
56046;DHT22;41913;51.030;3.706;2023-07-29T04:32:04;23.80;87.50
56046;DHT22;41913;51.030;3.706;2023-07-29T04:34:29;23.80;87.40
56046;DHT22;41913;51.030;3.706;2023-07-29T04:36:55;23.80;87.40
56046;DHT22;41913;51.030;3.706;2023-07-29T04:39:21;23.90;87.50
56046;DHT22;41913;51.030;3.706;2023-07-29T04:41:46;23.80;87.40
56046;DHT22;41913;51.030;3.706;2023-07-29T04:44:13;23.80;87.40
56046;DHT22;41913;51.030;3.706;2023-07-29T04:46:39;23.90;87.50
56046;DHT22;41913;51.030;3.706;2023-07-29T04:49:04;23.90;87.40
56046;DHT22;41913;51.030;3.706;2023-07-29T04:51:30;23.80;87.40
56046;DHT22;41913;51.030;3.706;2023-07-29T04:53:58;23.80;87.40
56046;DHT22;41913;51.030;3.706;2023-07-29T04:56:24;23.80;87.40
56046;DHT22;41913;51.030;3.706;2023-07-29T04:58:50;23.80;87.30
56046;DHT22;41913;51.030;3.706;2023-07-29T05:01:16;23.80;87.40
56046;DHT22;41913;51.030;3.706;2023-07-29T05:03:41;23.80;87.30
56046;DHT22;41913;51.030;3.706;2023-07-29T05:06:07;23.80;87.30
56046;DHT22;41913;51.030;3.706;2023-07-29T05:08:33;23.80;87.30
56046;DHT22;41913;51.030;3.706;2023-07-29T05:10:59;23.80;87.30
56046;DHT22;41913;51.030;3.706;2023-07-29T05:13:24;23.80;87.30
56046;DHT22;41913;51.030;3.706;2023-07-29T05:15:50;23.80;87.30
56046;DHT22;41913;51.030;3.706;2023-07-29T05:18:17;23.80;87.30
56046;DHT22;41913;51.030;3.706;2023-07-29T05:20:42;23.80;87.30
56046;DHT22;41913;51.030;3.706;2023-07-29T05:23:08;23.80;87.40
56046;DHT22;41913;51.030;3.706;2023-07-29T05:25:34;23.80;87.30
56046;DHT22;41913;51.030;3.706;2023-07-29T05:28:03;23.80;87.30
56046;DHT22;41913;51.030;3.706;2023-07-29T05:30:30;23.80;87.30
56046;DHT22;41913;51.030;3.706;2023-07-29T05:33:03;23.80;87.40
56046;DHT22;41913;51.030;3.706;2023-07-29T05:35:30;23.80;87.40
56046;DHT22;41913;51.030;3.706;2023-07-29T05:37:55;23.80;87.50
56046;DHT22;41913;51.030;3.706;2023-07-29T05:40:21;23.80;87.50
56046;DHT22;41913;51.030;3.706;2023-07-29T05:42:47;23.80;87.50
56046;DHT22;41913;51.030;3.706;2023-07-29T05:45:13;23.80;87.50
56046;DHT22;41913;51.030;3.706;2023-07-29T05:47:39;23.80;87.50
56046;DHT22;41913;51.030;3.706;2023-07-29T05:50:05;23.80;87.50
56046;DHT22;41913;51.030;3.706;2023-07-29T05:52:35;23.80;87.50
56046;DHT22;41913;51.030;3.706;2023-07-29T05:55:01;23.80;87.50
56046;DHT22;41913;51.030;3.706;2023-07-29T05:57:27;23.80;87.50
56046;DHT22;41913;51.030;3.706;2023-07-29T05:59:53;23.80;87.60
56046;DHT22;41913;51.030;3.706;2023-07-29T06:02:19;23.80;87.50
56046;DHT22;41913;51.030;3.706;2023-07-29T06:04:44;23.80;87.50
56046;DHT22;41913;51.030;3.706;2023-07-29T06:07:10;23.80;87.60
56046;DHT22;41913;51.030;3.706;2023-07-29T06:09:36;23.80;87.70
56046;DHT22;41913;51.030;3.706;2023-07-29T06:12:01;23.80;87.70
56046;DHT22;41913;51.030;3.706;2023-07-29T06:14:27;23.80;87.60
56046;DHT22;41913;51.030;3.706;2023-07-29T06:16:53;23.80;87.70
56046;DHT22;41913;51.030;3.706;2023-07-29T06:19:20;23.80;87.60
56046;DHT22;41913;51.030;3.706;2023-07-29T06:21:46;23.80;87.60
56046;DHT22;41913;51.030;3.706;2023-07-29T06:24:11;23.80;87.60
56046;DHT22;41913;51.030;3.706;2023-07-29T06:26:37;23.80;87.50
56046;DHT22;41913;51.030;3.706;2023-07-29T06:29:03;23.80;87.60
56046;DHT22;41913;51.030;3.706;2023-07-29T06:31:29;23.80;87.70
56046;DHT22;41913;51.030;3.706;2023-07-29T06:33:55;23.80;87.80
56046;DHT22;41913;51.030;3.706;2023-07-29T06:36:20;23.80;88.40
56046;DHT22;41913;51.030;3.706;2023-07-29T06:38:46;23.80;87.90
56046;DHT22;41913;51.030;3.706;2023-07-29T06:41:13;23.80;87.90
56046;DHT22;41913;51.030;3.706;2023-07-29T06:43:39;23.80;88.00
56046;DHT22;41913;51.030;3.706;2023-07-29T06:46:04;23.80;88.00
56046;DHT22;41913;51.030;3.706;2023-07-29T06:48:30;23.80;88.00
56046;DHT22;41913;51.030;3.706;2023-07-29T06:50:56;23.80;88.00
56046;DHT22;41913;51.030;3.706;2023-07-29T06:53:26;23.80;88.00
56046;DHT22;41913;51.030;3.706;2023-07-29T06:55:52;23.80;88.00
56046;DHT22;41913;51.030;3.706;2023-07-29T06:58:17;23.80;88.10
56046;DHT22;41913;51.030;3.706;2023-07-29T07:00:43;23.80;88.10
56046;DHT22;41913;51.030;3.706;2023-07-29T07:03:09;23.80;88.10
56046;DHT22;41913;51.030;3.706;2023-07-29T07:05:34;23.80;88.10
56046;DHT22;41913;51.030;3.706;2023-07-29T07:08:00;23.80;88.10
56046;DHT22;41913;51.030;3.706;2023-07-29T07:10:26;23.80;88.10
56046;DHT22;41913;51.030;3.706;2023-07-29T07:12:52;23.80;88.10
56046;DHT22;41913;51.030;3.706;2023-07-29T07:15:18;23.80;88.10
56046;DHT22;41913;51.030;3.706;2023-07-29T07:17:43;23.80;88.10
56046;DHT22;41913;51.030;3.706;2023-07-29T07:20:09;23.80;88.10
56046;DHT22;41913;51.030;3.706;2023-07-29T07:22:35;23.80;88.10
56046;DHT22;41913;51.030;3.706;2023-07-29T07:25:01;23.80;88.10
56046;DHT22;41913;51.030;3.706;2023-07-29T07:27:27;23.80;88.10
56046;DHT22;41913;51.030;3.706;2023-07-29T07:29:52;23.80;88.70
56046;DHT22;41913;51.030;3.706;2023-07-29T07:32:18;23.80;88.20
56046;DHT22;41913;51.030;3.706;2023-07-29T07:34:44;23.80;88.20
56046;DHT22;41913;51.030;3.706;2023-07-29T07:37:09;23.80;88.20
56046;DHT22;41913;51.030;3.706;2023-07-29T07:39:35;23.80;88.30
56046;DHT22;41913;51.030;3.706;2023-07-29T07:42:01;23.80;89.00
56046;DHT22;41913;51.030;3.706;2023-07-29T07:44:27;23.80;88.50
56046;DHT22;41913;51.030;3.706;2023-07-29T07:46:53;23.80;88.50
56046;DHT22;41913;51.030;3.706;2023-07-29T07:49:19;23.80;88.60
56046;DHT22;41913;51.030;3.706;2023-07-29T07:51:45;23.90;88.60
56046;DHT22;41913;51.030;3.706;2023-07-29T07:54:11;23.80;89.20
56046;DHT22;41913;51.030;3.706;2023-07-29T07:56:36;23.90;88.70
56046;DHT22;41913;51.030;3.706;2023-07-29T07:59:02;23.90;88.90
56046;DHT22;41913;51.030;3.706;2023-07-29T08:01:37;23.90;88.90
56046;DHT22;41913;51.030;3.706;2023-07-29T08:04:03;23.90;88.90
56046;DHT22;41913;51.030;3.706;2023-07-29T08:06:30;23.90;89.00
56046;DHT22;41913;51.030;3.706;2023-07-29T08:08:56;23.90;89.00
56046;DHT22;41913;51.030;3.706;2023-07-29T08:11:21;23.90;89.00
56046;DHT22;41913;51.030;3.706;2023-07-29T08:13:47;23.90;89.10
56046;DHT22;41913;51.030;3.706;2023-07-29T08:16:13;23.90;89.20
56046;DHT22;41913;51.030;3.706;2023-07-29T08:18:39;23.90;89.20
56046;DHT22;41913;51.030;3.706;2023-07-29T08:21:05;23.90;89.30
56046;DHT22;41913;51.030;3.706;2023-07-29T08:23:32;23.90;89.30
56046;DHT22;41913;51.030;3.706;2023-07-29T08:26:02;23.90;89.30
56046;DHT22;41913;51.030;3.706;2023-07-29T08:28:31;23.90;89.30
56046;DHT22;41913;51.030;3.706;2023-07-29T08:30:57;23.90;89.30
56046;DHT22;41913;51.030;3.706;2023-07-29T08:33:22;23.90;89.30
56046;DHT22;41913;51.030;3.706;2023-07-29T08:35:49;24.00;89.20
56046;DHT22;41913;51.030;3.706;2023-07-29T08:38:15;23.90;89.00
56046;DHT22;41913;51.030;3.706;2023-07-29T08:43:19;24.00;89.10
56046;DHT22;41913;51.030;3.706;2023-07-29T08:45:46;24.00;89.30
56046;DHT22;41913;51.030;3.706;2023-07-29T08:48:13;24.00;89.20
56046;DHT22;41913;51.030;3.706;2023-07-29T08:50:44;24.00;89.30
56046;DHT22;41913;51.030;3.706;2023-07-29T08:53:11;24.00;89.90
56046;DHT22;41913;51.030;3.706;2023-07-29T08:55:37;24.00;89.40
56046;DHT22;41913;51.030;3.706;2023-07-29T08:58:02;24.00;89.50
56046;DHT22;41913;51.030;3.706;2023-07-29T09:00:29;24.00;89.50
56046;DHT22;41913;51.030;3.706;2023-07-29T09:02:54;24.10;89.40
56046;DHT22;41913;51.030;3.706;2023-07-29T09:05:21;24.10;89.60
56046;DHT22;41913;51.030;3.706;2023-07-29T09:07:47;24.10;89.50
56046;DHT22;41913;51.030;3.706;2023-07-29T09:10:13;24.10;89.60
56046;DHT22;41913;51.030;3.706;2023-07-29T09:12:40;24.10;89.80
56046;DHT22;41913;51.030;3.706;2023-07-29T09:15:06;24.10;89.40
56046;DHT22;41913;51.030;3.706;2023-07-29T09:17:35;24.10;89.30
56046;DHT22;41913;51.030;3.706;2023-07-29T09:20:01;24.10;89.30
56046;DHT22;41913;51.030;3.706;2023-07-29T09:22:28;24.10;89.40
56046;DHT22;41913;51.030;3.706;2023-07-29T09:24:57;24.10;89.40
56046;DHT22;41913;51.030;3.706;2023-07-29T09:27:26;24.10;89.40
56046;DHT22;41913;51.030;3.706;2023-07-29T09:29:53;24.10;89.40
56046;DHT22;41913;51.030;3.706;2023-07-29T09:32:20;24.10;90.00
56046;DHT22;41913;51.030;3.706;2023-07-29T09:34:46;24.10;89.50
56046;DHT22;41913;51.030;3.706;2023-07-29T09:37:22;24.10;89.50
56046;DHT22;41913;51.030;3.706;2023-07-29T09:39:49;24.10;89.60
56046;DHT22;41913;51.030;3.706;2023-07-29T09:42:22;24.10;89.60
56046;DHT22;41913;51.030;3.706;2023-07-29T09:44:49;24.10;89.60
56046;DHT22;41913;51.030;3.706;2023-07-29T09:47:23;24.10;89.60
56046;DHT22;41913;51.030;3.706;2023-07-29T09:49:52;24.10;89.60
56046;DHT22;41913;51.030;3.706;2023-07-29T09:52:19;24.10;89.70
56046;DHT22;41913;51.030;3.706;2023-07-29T09:54:46;24.10;89.70
56046;DHT22;41913;51.030;3.706;2023-07-29T09:57:16;24.10;89.90
56046;DHT22;41913;51.030;3.706;2023-07-29T09:59:52;24.10;90.20
56046;DHT22;41913;51.030;3.706;2023-07-29T10:02:19;24.10;90.00
56046;DHT22;41913;51.030;3.706;2023-07-29T10:04:46;24.10;90.10
56046;DHT22;41913;51.030;3.706;2023-07-29T10:07:12;24.10;90.20
56046;DHT22;41913;51.030;3.706;2023-07-29T10:09:39;24.10;90.30
56046;DHT22;41913;51.030;3.706;2023-07-29T10:12:06;24.10;90.30
56046;DHT22;41913;51.030;3.706;2023-07-29T10:14:33;24.10;90.40
56046;DHT22;41913;51.030;3.706;2023-07-29T10:16:59;24.10;90.40
56046;DHT22;41913;51.030;3.706;2023-07-29T10:19:26;24.10;90.40
56046;DHT22;41913;51.030;3.706;2023-07-29T10:21:52;24.10;90.40
56046;DHT22;41913;51.030;3.706;2023-07-29T10:24:24;24.10;90.50
56046;DHT22;41913;51.030;3.706;2023-07-29T10:26:58;24.10;90.50
56046;DHT22;41913;51.030;3.706;2023-07-29T10:29:24;24.10;90.50
56046;DHT22;41913;51.030;3.706;2023-07-29T10:31:55;24.10;90.60
56046;DHT22;41913;51.030;3.706;2023-07-29T10:34:23;24.10;90.50
56046;DHT22;41913;51.030;3.706;2023-07-29T10:36:50;24.10;90.60
56046;DHT22;41913;51.030;3.706;2023-07-29T10:39:16;24.20;90.70
56046;DHT22;41913;51.030;3.706;2023-07-29T10:42:01;24.10;90.70
56046;DHT22;41913;51.030;3.706;2023-07-29T10:49:49;24.10;90.80
56046;DHT22;41913;51.030;3.706;2023-07-29T10:52:27;24.10;91.00
56046;DHT22;41913;51.030;3.706;2023-07-29T10:54:53;24.10;91.00
56046;DHT22;41913;51.030;3.706;2023-07-29T10:57:31;24.10;91.10
56046;DHT22;41913;51.030;3.706;2023-07-29T10:59:58;24.10;91.10
56046;DHT22;41913;51.030;3.706;2023-07-29T11:04:56;24.10;91.20
56046;DHT22;41913;51.030;3.706;2023-07-29T11:07:23;24.10;91.20
56046;DHT22;41913;51.030;3.706;2023-07-29T11:10:00;24.10;91.30
56046;DHT22;41913;51.030;3.706;2023-07-29T11:12:40;24.10;91.30
56046;DHT22;41913;51.030;3.706;2023-07-29T11:17:39;24.10;91.30
56046;DHT22;41913;51.030;3.706;2023-07-29T11:20:06;24.10;91.30
56046;DHT22;41913;51.030;3.706;2023-07-29T11:22:35;24.10;91.30
56046;DHT22;41913;51.030;3.706;2023-07-29T11:25:01;24.10;91.60
56046;DHT22;41913;51.030;3.706;2023-07-29T11:27:27;24.10;91.70
56046;DHT22;41913;51.030;3.706;2023-07-29T11:29:58;24.10;91.50
56046;DHT22;41913;51.030;3.706;2023-07-29T11:32:25;24.10;91.40
56046;DHT22;41913;51.030;3.706;2023-07-29T11:34:51;24.10;91.50
56046;DHT22;41913;51.030;3.706;2023-07-29T11:37:16;24.10;91.40
56046;DHT22;41913;51.030;3.706;2023-07-29T11:39:44;24.10;91.40
56046;DHT22;41913;51.030;3.706;2023-07-29T11:42:11;24.10;91.60
56046;DHT22;41913;51.030;3.706;2023-07-29T11:44:37;24.10;91.70
56046;DHT22;41913;51.030;3.706;2023-07-29T11:47:10;24.20;91.90
56046;DHT22;41913;51.030;3.706;2023-07-29T11:49:41;24.20;91.90
56046;DHT22;41913;51.030;3.706;2023-07-29T11:52:08;24.20;91.90
56046;DHT22;41913;51.030;3.706;2023-07-29T11:54:35;24.20;92.10
56046;DHT22;41913;51.030;3.706;2023-07-29T11:57:01;24.20;92.20
56046;DHT22;41913;51.030;3.706;2023-07-29T11:59:30;24.30;92.20
56046;DHT22;41913;51.030;3.706;2023-07-29T12:01:55;24.20;92.20
56046;DHT22;41913;51.030;3.706;2023-07-29T12:04:21;24.30;92.40
56046;DHT22;41913;51.030;3.706;2023-07-29T12:06:47;24.30;92.40
56046;DHT22;41913;51.030;3.706;2023-07-29T12:09:13;24.30;92.40
56046;DHT22;41913;51.030;3.706;2023-07-29T12:11:39;24.30;92.40
56046;DHT22;41913;51.030;3.706;2023-07-29T12:14:07;24.30;92.40
56046;DHT22;41913;51.030;3.706;2023-07-29T12:16:43;24.30;92.30
56046;DHT22;41913;51.030;3.706;2023-07-29T12:19:13;24.30;92.30
56046;DHT22;41913;51.030;3.706;2023-07-29T12:21:43;24.30;92.20
56046;DHT22;41913;51.030;3.706;2023-07-29T12:24:09;24.30;92.10
56046;DHT22;41913;51.030;3.706;2023-07-29T12:26:36;24.30;92.50
56046;DHT22;41913;51.030;3.706;2023-07-29T12:29:17;24.40;92.20
56046;DHT22;41913;51.030;3.706;2023-07-29T12:31:45;24.40;92.20
56046;DHT22;41913;51.030;3.706;2023-07-29T12:34:21;24.30;92.10
56046;DHT22;41913;51.030;3.706;2023-07-29T12:36:51;24.40;92.20
56046;DHT22;41913;51.030;3.706;2023-07-29T12:39:35;24.40;92.00
56046;DHT22;41913;51.030;3.706;2023-07-29T12:42:05;24.40;91.90
56046;DHT22;41913;51.030;3.706;2023-07-29T12:44:35;24.30;91.80
56046;DHT22;41913;51.030;3.706;2023-07-29T12:47:02;24.40;91.70
56046;DHT22;41913;51.030;3.706;2023-07-29T12:49:29;24.40;91.60
56046;DHT22;41913;51.030;3.706;2023-07-29T12:51:56;24.40;91.40
56046;DHT22;41913;51.030;3.706;2023-07-29T12:54:22;24.40;91.50
56046;DHT22;41913;51.030;3.706;2023-07-29T12:56:47;24.40;91.50
56046;DHT22;41913;51.030;3.706;2023-07-29T12:59:13;24.40;91.30
56046;DHT22;41913;51.030;3.706;2023-07-29T13:01:39;24.40;91.30
56046;DHT22;41913;51.030;3.706;2023-07-29T13:04:04;24.40;91.30
56046;DHT22;41913;51.030;3.706;2023-07-29T13:06:30;24.40;91.40
56046;DHT22;41913;51.030;3.706;2023-07-29T13:08:56;24.40;91.40
56046;DHT22;41913;51.030;3.706;2023-07-29T13:11:23;24.40;91.50
56046;DHT22;41913;51.030;3.706;2023-07-29T13:13:49;24.40;91.20
56046;DHT22;41913;51.030;3.706;2023-07-29T13:16:15;24.40;91.10
56046;DHT22;41913;51.030;3.706;2023-07-29T13:18:40;24.40;91.00
56046;DHT22;41913;51.030;3.706;2023-07-29T13:21:07;24.40;91.00
56046;DHT22;41913;51.030;3.706;2023-07-29T13:23:33;24.40;91.00
56046;DHT22;41913;51.030;3.706;2023-07-29T13:25:58;24.40;91.10
56046;DHT22;41913;51.030;3.706;2023-07-29T13:28:24;24.40;91.10
56046;DHT22;41913;51.030;3.706;2023-07-29T13:30:50;24.40;91.10
56046;DHT22;41913;51.030;3.706;2023-07-29T13:33:16;24.40;91.10
56046;DHT22;41913;51.030;3.706;2023-07-29T13:35:42;24.40;91.20
56046;DHT22;41913;51.030;3.706;2023-07-29T13:38:08;24.40;91.40
56046;DHT22;41913;51.030;3.706;2023-07-29T13:40:34;24.40;91.40
56046;DHT22;41913;51.030;3.706;2023-07-29T13:43:00;24.40;91.40
56046;DHT22;41913;51.030;3.706;2023-07-29T13:45:26;24.40;91.70
56046;DHT22;41913;51.030;3.706;2023-07-29T13:47:52;24.40;91.60
56046;DHT22;41913;51.030;3.706;2023-07-29T13:50:18;24.40;91.80
56046;DHT22;41913;51.030;3.706;2023-07-29T13:52:44;24.40;91.90
56046;DHT22;41913;51.030;3.706;2023-07-29T13:55:09;24.50;92.10
56046;DHT22;41913;51.030;3.706;2023-07-29T13:57:37;24.50;92.20
56046;DHT22;41913;51.030;3.706;2023-07-29T14:00:04;24.50;92.30
56046;DHT22;41913;51.030;3.706;2023-07-29T14:02:30;24.50;92.30
56046;DHT22;41913;51.030;3.706;2023-07-29T14:04:57;24.50;92.30
56046;DHT22;41913;51.030;3.706;2023-07-29T14:07:22;24.50;92.30
56046;DHT22;41913;51.030;3.706;2023-07-29T14:09:48;24.50;92.20
56046;DHT22;41913;51.030;3.706;2023-07-29T14:12:14;24.50;92.50
56046;DHT22;41913;51.030;3.706;2023-07-29T14:14:42;24.50;92.70
56046;DHT22;41913;51.030;3.706;2023-07-29T14:17:08;24.50;92.90
56046;DHT22;41913;51.030;3.706;2023-07-29T14:19:36;24.50;93.10
56046;DHT22;41913;51.030;3.706;2023-07-29T14:22:01;24.50;93.10
56046;DHT22;41913;51.030;3.706;2023-07-29T14:24:27;24.50;93.00
56046;DHT22;41913;51.030;3.706;2023-07-29T14:26:53;24.50;92.90
56046;DHT22;41913;51.030;3.706;2023-07-29T14:29:19;24.50;93.00
56046;DHT22;41913;51.030;3.706;2023-07-29T14:31:44;24.50;92.80
56046;DHT22;41913;51.030;3.706;2023-07-29T14:34:10;24.50;92.60
56046;DHT22;41913;51.030;3.706;2023-07-29T14:36:36;24.50;92.50
56046;DHT22;41913;51.030;3.706;2023-07-29T14:39:02;24.60;92.50
56046;DHT22;41913;51.030;3.706;2023-07-29T14:41:28;24.60;92.50
56046;DHT22;41913;51.030;3.706;2023-07-29T14:43:54;24.50;92.50
56046;DHT22;41913;51.030;3.706;2023-07-29T14:46:20;24.50;92.40
56046;DHT22;41913;51.030;3.706;2023-07-29T14:48:45;24.50;92.20
56046;DHT22;41913;51.030;3.706;2023-07-29T14:51:13;24.50;92.20
56046;DHT22;41913;51.030;3.706;2023-07-29T14:53:38;24.60;92.20
56046;DHT22;41913;51.030;3.706;2023-07-29T14:56:04;24.50;92.10
56046;DHT22;41913;51.030;3.706;2023-07-29T14:58:30;24.50;92.10
56046;DHT22;41913;51.030;3.706;2023-07-29T15:00:56;24.60;92.20
56046;DHT22;41913;51.030;3.706;2023-07-29T15:03:21;24.60;92.30
56046;DHT22;41913;51.030;3.706;2023-07-29T15:05:47;24.60;92.20
56046;DHT22;41913;51.030;3.706;2023-07-29T15:08:13;24.60;92.10
56046;DHT22;41913;51.030;3.706;2023-07-29T15:10:38;24.60;92.10
56046;DHT22;41913;51.030;3.706;2023-07-29T15:13:04;24.60;92.10
56046;DHT22;41913;51.030;3.706;2023-07-29T15:15:30;24.60;92.10
56046;DHT22;41913;51.030;3.706;2023-07-29T15:17:55;24.60;92.10
56046;DHT22;41913;51.030;3.706;2023-07-29T15:20:22;24.60;92.10
56046;DHT22;41913;51.030;3.706;2023-07-29T15:22:48;24.60;92.00
56046;DHT22;41913;51.030;3.706;2023-07-29T15:25:13;24.60;91.90
56046;DHT22;41913;51.030;3.706;2023-07-29T15:27:39;24.60;91.80
56046;DHT22;41913;51.030;3.706;2023-07-29T15:30:08;24.60;91.70
56046;DHT22;41913;51.030;3.706;2023-07-29T15:32:34;24.60;91.60
56046;DHT22;41913;51.030;3.706;2023-07-29T15:35:00;24.60;91.50
56046;DHT22;41913;51.030;3.706;2023-07-29T15:37:26;24.60;91.50
56046;DHT22;41913;51.030;3.706;2023-07-29T15:39:52;24.60;91.40
56046;DHT22;41913;51.030;3.706;2023-07-29T15:42:17;24.60;91.20
56046;DHT22;41913;51.030;3.706;2023-07-29T15:44:43;24.60;90.90